sensor_id;sensor_type;location;lat;lon;timestamp;temperature;humidity
15926;DHT22;8062;53.882;10.642;2023-02-28T00:01:04;2.50;99.90
15926;DHT22;8062;53.882;10.642;2023-02-28T00:02:24;2.60;99.90
15926;DHT22;8062;53.882;10.642;2023-02-28T00:03:43;2.60;99.90
15926;DHT22;8062;53.882;10.642;2023-02-28T00:05:03;2.60;99.90
15926;DHT22;8062;53.882;10.642;2023-02-28T00:06:24;2.60;99.90
15926;DHT22;8062;53.882;10.642;2023-02-28T00:07:44;2.60;99.90
15926;DHT22;8062;53.882;10.642;2023-02-28T00:09:03;2.60;99.90
15926;DHT22;8062;53.882;10.642;2023-02-28T00:10:28;2.60;99.90
15926;DHT22;8062;53.882;10.642;2023-02-28T00:11:48;2.50;99.90
15926;DHT22;8062;53.882;10.642;2023-02-28T00:13:08;2.50;99.90
15926;DHT22;8062;53.882;10.642;2023-02-28T00:14:27;2.40;99.90
15926;DHT22;8062;53.882;10.642;2023-02-28T00:15:47;2.40;99.90
15926;DHT22;8062;53.882;10.642;2023-02-28T00:17:06;2.40;99.90
15926;DHT22;8062;53.882;10.642;2023-02-28T00:18:26;2.40;99.90
15926;DHT22;8062;53.882;10.642;2023-02-28T00:19:45;2.40;99.90
15926;DHT22;8062;53.882;10.642;2023-02-28T00:21:06;2.40;99.90
15926;DHT22;8062;53.882;10.642;2023-02-28T00:22:25;2.40;99.90
15926;DHT22;8062;53.882;10.642;2023-02-28T00:23:45;2.40;99.90
15926;DHT22;8062;53.882;10.642;2023-02-28T00:25:05;2.40;99.90
15926;DHT22;8062;53.882;10.642;2023-02-28T00:26:26;2.40;99.90
15926;DHT22;8062;53.882;10.642;2023-02-28T00:27:46;2.40;99.90
15926;DHT22;8062;53.882;10.642;2023-02-28T00:29:05;2.40;99.90
15926;DHT22;8062;53.882;10.642;2023-02-28T00:30:25;2.40;99.90
15926;DHT22;8062;53.882;10.642;2023-02-28T00:31:44;2.40;99.90
15926;DHT22;8062;53.882;10.642;2023-02-28T00:33:04;2.40;99.90
15926;DHT22;8062;53.882;10.642;2023-02-28T00:34:24;2.40;99.90
15926;DHT22;8062;53.882;10.642;2023-02-28T00:35:43;2.40;99.90
15926;DHT22;8062;53.882;10.642;2023-02-28T00:37:07;2.40;99.90
15926;DHT22;8062;53.882;10.642;2023-02-28T00:38:26;2.40;99.90
15926;DHT22;8062;53.882;10.642;2023-02-28T00:39:46;2.40;99.90
15926;DHT22;8062;53.882;10.642;2023-02-28T00:41:09;2.40;99.90
15926;DHT22;8062;53.882;10.642;2023-02-28T00:42:29;2.40;99.90
15926;DHT22;8062;53.882;10.642;2023-02-28T00:43:48;2.30;99.90
15926;DHT22;8062;53.882;10.642;2023-02-28T00:45:08;2.40;99.90
15926;DHT22;8062;53.882;10.642;2023-02-28T00:46:30;2.30;99.90
15926;DHT22;8062;53.882;10.642;2023-02-28T00:47:51;2.30;99.90
15926;DHT22;8062;53.882;10.642;2023-02-28T00:49:11;2.30;99.90
15926;DHT22;8062;53.882;10.642;2023-02-28T00:50:30;2.30;99.90
15926;DHT22;8062;53.882;10.642;2023-02-28T00:51:50;2.20;99.90
15926;DHT22;8062;53.882;10.642;2023-02-28T00:53:12;2.20;99.90
15926;DHT22;8062;53.882;10.642;2023-02-28T00:54:31;2.30;99.90
15926;DHT22;8062;53.882;10.642;2023-02-28T00:55:51;2.30;99.90
15926;DHT22;8062;53.882;10.642;2023-02-28T00:57:11;2.30;99.90
15926;DHT22;8062;53.882;10.642;2023-02-28T00:58:31;2.30;99.90
15926;DHT22;8062;53.882;10.642;2023-02-28T00:59:51;2.20;99.90
15926;DHT22;8062;53.882;10.642;2023-02-28T01:01:14;2.20;99.90
15926;DHT22;8062;53.882;10.642;2023-02-28T01:02:33;2.20;99.90
15926;DHT22;8062;53.882;10.642;2023-02-28T01:03:53;2.20;99.90
15926;DHT22;8062;53.882;10.642;2023-02-28T01:05:14;2.20;99.90
15926;DHT22;8062;53.882;10.642;2023-02-28T01:06:33;2.20;99.90
15926;DHT22;8062;53.882;10.642;2023-02-28T01:07:53;2.20;99.90
15926;DHT22;8062;53.882;10.642;2023-02-28T01:09:12;2.20;99.90
15926;DHT22;8062;53.882;10.642;2023-02-28T01:10:34;2.20;99.90
15926;DHT22;8062;53.882;10.642;2023-02-28T01:11:55;2.20;99.90
15926;DHT22;8062;53.882;10.642;2023-02-28T01:13:16;2.20;99.90
15926;DHT22;8062;53.882;10.642;2023-02-28T01:14:35;2.20;99.90
15926;DHT22;8062;53.882;10.642;2023-02-28T01:15:55;2.20;99.90
15926;DHT22;8062;53.882;10.642;2023-02-28T01:17:16;2.20;99.90
15926;DHT22;8062;53.882;10.642;2023-02-28T01:18:36;2.20;99.90
15926;DHT22;8062;53.882;10.642;2023-02-28T01:19:56;2.20;99.90
15926;DHT22;8062;53.882;10.642;2023-02-28T01:21:19;2.20;99.90
15926;DHT22;8062;53.882;10.642;2023-02-28T01:22:39;2.20;99.90
15926;DHT22;8062;53.882;10.642;2023-02-28T01:24:01;2.20;99.90
15926;DHT22;8062;53.882;10.642;2023-02-28T01:25:21;2.20;99.90
15926;DHT22;8062;53.882;10.642;2023-02-28T01:26:40;2.10;99.90
15926;DHT22;8062;53.882;10.642;2023-02-28T01:28:01;2.10;99.90
15926;DHT22;8062;53.882;10.642;2023-02-28T01:29:21;2.10;99.90
15926;DHT22;8062;53.882;10.642;2023-02-28T01:30:40;2.10;99.90
15926;DHT22;8062;53.882;10.642;2023-02-28T01:32:00;2.10;99.90
15926;DHT22;8062;53.882;10.642;2023-02-28T01:33:19;2.00;99.90
15926;DHT22;8062;53.882;10.642;2023-02-28T01:34:39;2.00;99.90
15926;DHT22;8062;53.882;10.642;2023-02-28T01:35:59;2.00;99.90
15926;DHT22;8062;53.882;10.642;2023-02-28T01:37:19;2.00;99.90
15926;DHT22;8062;53.882;10.642;2023-02-28T01:38:39;2.00;99.90
15926;DHT22;8062;53.882;10.642;2023-02-28T01:39:59;1.90;99.90
15926;DHT22;8062;53.882;10.642;2023-02-28T01:41:24;1.90;99.90
15926;DHT22;8062;53.882;10.642;2023-02-28T01:42:44;1.90;99.90
15926;DHT22;8062;53.882;10.642;2023-02-28T01:46:05;1.80;99.90
15926;DHT22;8062;53.882;10.642;2023-02-28T01:47:29;1.80;99.90
15926;DHT22;8062;53.882;10.642;2023-02-28T01:49:12;1.70;99.90
15926;DHT22;8062;53.882;10.642;2023-02-28T01:50:38;1.70;99.90
15926;DHT22;8062;53.882;10.642;2023-02-28T01:51:58;1.70;99.90
15926;DHT22;8062;53.882;10.642;2023-02-28T01:53:27;1.70;99.90
15926;DHT22;8062;53.882;10.642;2023-02-28T01:54:52;1.70;99.90
15926;DHT22;8062;53.882;10.642;2023-02-28T01:56:14;1.70;99.90
15926;DHT22;8062;53.882;10.642;2023-02-28T01:57:46;1.60;99.90
15926;DHT22;8062;53.882;10.642;2023-02-28T01:59:09;1.70;99.90
15926;DHT22;8062;53.882;10.642;2023-02-28T02:00:30;1.70;99.90
15926;DHT22;8062;53.882;10.642;2023-02-28T02:01:50;1.60;99.90
15926;DHT22;8062;53.882;10.642;2023-02-28T02:03:14;1.70;99.90
15926;DHT22;8062;53.882;10.642;2023-02-28T02:04:45;1.70;99.90
15926;DHT22;8062;53.882;10.642;2023-02-28T02:06:06;1.70;99.90
15926;DHT22;8062;53.882;10.642;2023-02-28T02:07:26;1.70;99.90
15926;DHT22;8062;53.882;10.642;2023-02-28T02:08:48;1.80;99.90
15926;DHT22;8062;53.882;10.642;2023-02-28T02:10:20;1.70;99.90
15926;DHT22;8062;53.882;10.642;2023-02-28T02:11:43;1.60;99.90
15926;DHT22;8062;53.882;10.642;2023-02-28T02:15:06;1.60;99.90
15926;DHT22;8062;53.882;10.642;2023-02-28T02:17:54;1.60;99.90
15926;DHT22;8062;53.882;10.642;2023-02-28T02:19:36;1.60;99.90
15926;DHT22;8062;53.882;10.642;2023-02-28T02:21:11;1.60;99.90
15926;DHT22;8062;53.882;10.642;2023-02-28T02:22:58;1.50;99.90
15926;DHT22;8062;53.882;10.642;2023-02-28T02:24:55;1.50;99.90
15926;DHT22;8062;53.882;10.642;2023-02-28T02:26:45;1.60;99.90
15926;DHT22;8062;53.882;10.642;2023-02-28T02:28:22;1.60;99.90
15926;DHT22;8062;53.882;10.642;2023-02-28T02:29:59;1.60;99.90
15926;DHT22;8062;53.882;10.642;2023-02-28T02:31:29;1.70;99.90
15926;DHT22;8062;53.882;10.642;2023-02-28T02:34:41;1.70;99.90
15926;DHT22;8062;53.882;10.642;2023-02-28T02:36:27;1.70;99.90
15926;DHT22;8062;53.882;10.642;2023-02-28T02:37:54;1.70;99.90
15926;DHT22;8062;53.882;10.642;2023-02-28T02:41:20;1.60;99.90
15926;DHT22;8062;53.882;10.642;2023-02-28T02:43:11;1.60;99.90
15926;DHT22;8062;53.882;10.642;2023-02-28T02:44:43;1.70;99.90
15926;DHT22;8062;53.882;10.642;2023-02-28T02:48:47;1.60;99.90
15926;DHT22;8062;53.882;10.642;2023-02-28T02:50:12;1.50;99.90
15926;DHT22;8062;53.882;10.642;2023-02-28T02:51:33;1.50;99.90
15926;DHT22;8062;53.882;10.642;2023-02-28T02:52:57;1.50;99.90
15926;DHT22;8062;53.882;10.642;2023-02-28T02:54:27;1.40;99.90
15926;DHT22;8062;53.882;10.642;2023-02-28T02:55:50;1.40;99.90
15926;DHT22;8062;53.882;10.642;2023-02-28T02:57:26;1.30;99.90
15926;DHT22;8062;53.882;10.642;2023-02-28T02:58:48;1.30;99.90
15926;DHT22;8062;53.882;10.642;2023-02-28T03:00:10;1.20;99.90
15926;DHT22;8062;53.882;10.642;2023-02-28T03:01:31;1.20;99.90
15926;DHT22;8062;53.882;10.642;2023-02-28T03:02:52;1.10;99.90
15926;DHT22;8062;53.882;10.642;2023-02-28T03:04:18;1.00;99.90
15926;DHT22;8062;53.882;10.642;2023-02-28T03:05:49;1.00;99.90
15926;DHT22;8062;53.882;10.642;2023-02-28T03:07:09;0.90;99.90
15926;DHT22;8062;53.882;10.642;2023-02-28T03:08:36;0.90;99.90
15926;DHT22;8062;53.882;10.642;2023-02-28T03:09:57;0.80;99.90
15926;DHT22;8062;53.882;10.642;2023-02-28T03:11:16;0.80;99.90
15926;DHT22;8062;53.882;10.642;2023-02-28T03:12:47;0.70;99.90
15926;DHT22;8062;53.882;10.642;2023-02-28T03:16:21;0.60;99.90
15926;DHT22;8062;53.882;10.642;2023-02-28T03:17:57;0.50;99.90
15926;DHT22;8062;53.882;10.642;2023-02-28T03:21:26;0.50;99.90
15926;DHT22;8062;53.882;10.642;2023-02-28T03:24:28;0.30;99.90
15926;DHT22;8062;53.882;10.642;2023-02-28T03:25:59;0.30;99.90
15926;DHT22;8062;53.882;10.642;2023-02-28T03:27:26;0.20;99.90
15926;DHT22;8062;53.882;10.642;2023-02-28T03:34:17;0.00;99.90
15926;DHT22;8062;53.882;10.642;2023-02-28T03:35:42;0.00;99.90
15926;DHT22;8062;53.882;10.642;2023-02-28T03:37:08;0.00;99.90
15926;DHT22;8062;53.882;10.642;2023-02-28T03:38:34;0.00;99.90
15926;DHT22;8062;53.882;10.642;2023-02-28T03:40:05;0.00;99.90
15926;DHT22;8062;53.882;10.642;2023-02-28T03:41:36;-0.10;99.90
15926;DHT22;8062;53.882;10.642;2023-02-28T03:43:03;-0.20;99.90
15926;DHT22;8062;53.882;10.642;2023-02-28T03:44:43;-0.20;99.90
15926;DHT22;8062;53.882;10.642;2023-02-28T03:46:08;-0.30;99.90
15926;DHT22;8062;53.882;10.642;2023-02-28T03:47:39;-0.30;99.90
15926;DHT22;8062;53.882;10.642;2023-02-28T03:49:14;-0.30;99.90
15926;DHT22;8062;53.882;10.642;2023-02-28T03:50:38;-0.30;99.90
15926;DHT22;8062;53.882;10.642;2023-02-28T03:52:00;-0.40;99.90
15926;DHT22;8062;53.882;10.642;2023-02-28T03:54:50;-0.40;99.90
15926;DHT22;8062;53.882;10.642;2023-02-28T03:56:24;-0.40;99.90
15926;DHT22;8062;53.882;10.642;2023-02-28T03:58:05;-0.40;99.90
15926;DHT22;8062;53.882;10.642;2023-02-28T03:59:30;-0.30;99.90
15926;DHT22;8062;53.882;10.642;2023-02-28T04:01:07;-0.30;99.90
15926;DHT22;8062;53.882;10.642;2023-02-28T04:02:27;-0.30;99.90
15926;DHT22;8062;53.882;10.642;2023-02-28T04:03:47;-0.30;99.90
15926;DHT22;8062;53.882;10.642;2023-02-28T04:05:07;-0.30;99.90
15926;DHT22;8062;53.882;10.642;2023-02-28T04:06:26;-0.40;99.90
15926;DHT22;8062;53.882;10.642;2023-02-28T04:07:46;-0.40;99.90
15926;DHT22;8062;53.882;10.642;2023-02-28T04:09:07;-0.50;99.90
15926;DHT22;8062;53.882;10.642;2023-02-28T04:10:27;-0.50;99.90
15926;DHT22;8062;53.882;10.642;2023-02-28T04:11:50;-0.60;99.90
15926;DHT22;8062;53.882;10.642;2023-02-28T04:13:14;-0.60;99.90
15926;DHT22;8062;53.882;10.642;2023-02-28T04:14:34;-0.70;99.90
15926;DHT22;8062;53.882;10.642;2023-02-28T04:15:54;-0.70;99.90
15926;DHT22;8062;53.882;10.642;2023-02-28T04:17:13;-0.70;99.90
15926;DHT22;8062;53.882;10.642;2023-02-28T04:18:32;-0.70;99.90
15926;DHT22;8062;53.882;10.642;2023-02-28T04:19:52;-0.70;99.90
15926;DHT22;8062;53.882;10.642;2023-02-28T04:21:13;-0.80;99.90
15926;DHT22;8062;53.882;10.642;2023-02-28T04:22:32;-0.80;99.90
15926;DHT22;8062;53.882;10.642;2023-02-28T04:23:52;-0.80;99.90
15926;DHT22;8062;53.882;10.642;2023-02-28T04:25:11;-0.80;99.90
15926;DHT22;8062;53.882;10.642;2023-02-28T04:26:33;-1.00;99.90
15926;DHT22;8062;53.882;10.642;2023-02-28T04:27:52;-1.00;99.90
15926;DHT22;8062;53.882;10.642;2023-02-28T04:29:14;-1.10;99.90
15926;DHT22;8062;53.882;10.642;2023-02-28T04:30:34;-1.10;99.90
15926;DHT22;8062;53.882;10.642;2023-02-28T04:31:54;-1.10;99.90
15926;DHT22;8062;53.882;10.642;2023-02-28T04:33:14;-1.10;99.90
15926;DHT22;8062;53.882;10.642;2023-02-28T04:34:33;-1.10;99.90
15926;DHT22;8062;53.882;10.642;2023-02-28T04:36:04;-1.10;99.90
15926;DHT22;8062;53.882;10.642;2023-02-28T04:37:24;-1.20;99.90
15926;DHT22;8062;53.882;10.642;2023-02-28T04:38:48;-1.20;99.90
15926;DHT22;8062;53.882;10.642;2023-02-28T04:40:08;-1.20;99.90
15926;DHT22;8062;53.882;10.642;2023-02-28T04:41:27;-1.20;99.90
15926;DHT22;8062;53.882;10.642;2023-02-28T04:42:47;-1.20;99.90
15926;DHT22;8062;53.882;10.642;2023-02-28T04:44:07;-1.20;99.90
15926;DHT22;8062;53.882;10.642;2023-02-28T04:45:26;-1.20;99.90
15926;DHT22;8062;53.882;10.642;2023-02-28T04:46:49;-1.20;99.90
15926;DHT22;8062;53.882;10.642;2023-02-28T04:48:09;-1.10;99.90
15926;DHT22;8062;53.882;10.642;2023-02-28T04:49:29;-1.10;99.90
15926;DHT22;8062;53.882;10.642;2023-02-28T04:50:48;-1.20;99.90
15926;DHT22;8062;53.882;10.642;2023-02-28T04:52:07;-1.30;99.90
15926;DHT22;8062;53.882;10.642;2023-02-28T04:53:28;-1.40;99.90
15926;DHT22;8062;53.882;10.642;2023-02-28T04:54:48;-1.40;99.90
15926;DHT22;8062;53.882;10.642;2023-02-28T04:56:11;-1.50;99.90
15926;DHT22;8062;53.882;10.642;2023-02-28T04:57:31;-1.50;99.90
15926;DHT22;8062;53.882;10.642;2023-02-28T04:58:50;-1.50;99.90
15926;DHT22;8062;53.882;10.642;2023-02-28T05:00:12;-1.50;99.90
15926;DHT22;8062;53.882;10.642;2023-02-28T05:01:34;-1.50;99.90
15926;DHT22;8062;53.882;10.642;2023-02-28T05:02:55;-1.40;99.90
15926;DHT22;8062;53.882;10.642;2023-02-28T05:04:15;-1.40;99.90
15926;DHT22;8062;53.882;10.642;2023-02-28T05:05:35;-1.40;99.90
15926;DHT22;8062;53.882;10.642;2023-02-28T05:06:55;-1.40;99.90
15926;DHT22;8062;53.882;10.642;2023-02-28T05:08:14;-1.40;99.90
15926;DHT22;8062;53.882;10.642;2023-02-28T05:09:34;-1.40;99.90
15926;DHT22;8062;53.882;10.642;2023-02-28T05:10:54;-1.40;99.90
15926;DHT22;8062;53.882;10.642;2023-02-28T05:12:13;-1.40;99.90
15926;DHT22;8062;53.882;10.642;2023-02-28T05:13:33;-1.40;99.90
15926;DHT22;8062;53.882;10.642;2023-02-28T05:14:52;-1.40;99.90
15926;DHT22;8062;53.882;10.642;2023-02-28T05:16:12;-1.40;99.90
15926;DHT22;8062;53.882;10.642;2023-02-28T05:17:31;-1.30;99.90
15926;DHT22;8062;53.882;10.642;2023-02-28T05:18:51;-1.30;99.90
15926;DHT22;8062;53.882;10.642;2023-02-28T05:20:13;-1.30;99.90
15926;DHT22;8062;53.882;10.642;2023-02-28T05:21:38;-1.30;99.90
15926;DHT22;8062;53.882;10.642;2023-02-28T05:22:58;-1.40;99.90
15926;DHT22;8062;53.882;10.642;2023-02-28T05:24:19;-1.40;99.90
15926;DHT22;8062;53.882;10.642;2023-02-28T05:25:41;-1.40;99.90
15926;DHT22;8062;53.882;10.642;2023-02-28T05:27:01;-1.50;99.90
15926;DHT22;8062;53.882;10.642;2023-02-28T05:28:20;-1.50;99.90
15926;DHT22;8062;53.882;10.642;2023-02-28T05:29:40;-1.60;99.90
15926;DHT22;8062;53.882;10.642;2023-02-28T05:31:03;-1.60;99.90
15926;DHT22;8062;53.882;10.642;2023-02-28T05:32:22;-1.60;99.90
15926;DHT22;8062;53.882;10.642;2023-02-28T05:33:42;-1.70;99.90
15926;DHT22;8062;53.882;10.642;2023-02-28T05:35:02;-1.70;99.90
15926;DHT22;8062;53.882;10.642;2023-02-28T05:36:21;-1.70;99.90
15926;DHT22;8062;53.882;10.642;2023-02-28T05:37:41;-1.80;99.90
15926;DHT22;8062;53.882;10.642;2023-02-28T05:39:00;-1.70;99.90
15926;DHT22;8062;53.882;10.642;2023-02-28T05:40:20;-1.80;99.90
15926;DHT22;8062;53.882;10.642;2023-02-28T05:41:43;-1.80;99.90
15926;DHT22;8062;53.882;10.642;2023-02-28T05:43:02;-1.80;99.90
15926;DHT22;8062;53.882;10.642;2023-02-28T05:44:22;-1.80;99.90
15926;DHT22;8062;53.882;10.642;2023-02-28T05:45:42;-1.80;99.90
15926;DHT22;8062;53.882;10.642;2023-02-28T05:47:01;-1.70;99.90
15926;DHT22;8062;53.882;10.642;2023-02-28T05:48:20;-1.80;99.90
15926;DHT22;8062;53.882;10.642;2023-02-28T05:49:40;-1.70;99.90
15926;DHT22;8062;53.882;10.642;2023-02-28T05:51:00;-1.70;99.90
15926;DHT22;8062;53.882;10.642;2023-02-28T05:52:20;-1.70;99.90
15926;DHT22;8062;53.882;10.642;2023-02-28T05:53:39;-1.80;99.90
15926;DHT22;8062;53.882;10.642;2023-02-28T05:54:59;-1.80;99.90
15926;DHT22;8062;53.882;10.642;2023-02-28T05:56:18;-1.90;99.90
15926;DHT22;8062;53.882;10.642;2023-02-28T05:57:37;-1.90;99.90
15926;DHT22;8062;53.882;10.642;2023-02-28T05:58:57;-1.90;99.90
15926;DHT22;8062;53.882;10.642;2023-02-28T06:00:17;-2.00;99.90
15926;DHT22;8062;53.882;10.642;2023-02-28T06:01:39;-2.00;99.90
15926;DHT22;8062;53.882;10.642;2023-02-28T06:03:00;-2.00;99.90
15926;DHT22;8062;53.882;10.642;2023-02-28T06:04:21;-2.00;99.90
15926;DHT22;8062;53.882;10.642;2023-02-28T06:05:41;-2.00;99.90
15926;DHT22;8062;53.882;10.642;2023-02-28T06:07:01;-2.00;99.90
15926;DHT22;8062;53.882;10.642;2023-02-28T06:08:21;-2.00;99.90
15926;DHT22;8062;53.882;10.642;2023-02-28T06:09:40;-2.00;99.90
15926;DHT22;8062;53.882;10.642;2023-02-28T06:11:03;-2.00;99.90
15926;DHT22;8062;53.882;10.642;2023-02-28T06:12:22;-2.00;99.90
15926;DHT22;8062;53.882;10.642;2023-02-28T06:13:42;-2.00;99.90
15926;DHT22;8062;53.882;10.642;2023-02-28T06:15:01;-2.00;99.90
15926;DHT22;8062;53.882;10.642;2023-02-28T06:16:21;-2.00;99.90
15926;DHT22;8062;53.882;10.642;2023-02-28T06:17:41;-2.00;99.90
15926;DHT22;8062;53.882;10.642;2023-02-28T06:19:03;-2.00;99.90
15926;DHT22;8062;53.882;10.642;2023-02-28T06:20:23;-1.90;99.90
15926;DHT22;8062;53.882;10.642;2023-02-28T06:21:43;-1.90;99.90
15926;DHT22;8062;53.882;10.642;2023-02-28T06:23:03;-1.90;99.90
15926;DHT22;8062;53.882;10.642;2023-02-28T06:24:24;-1.80;99.90
15926;DHT22;8062;53.882;10.642;2023-02-28T06:25:47;-1.90;99.90
15926;DHT22;8062;53.882;10.642;2023-02-28T06:27:07;-2.00;99.90
15926;DHT22;8062;53.882;10.642;2023-02-28T06:28:26;-2.00;99.90
15926;DHT22;8062;53.882;10.642;2023-02-28T06:29:45;-2.10;99.90
15926;DHT22;8062;53.882;10.642;2023-02-28T06:31:10;-2.10;99.90
15926;DHT22;8062;53.882;10.642;2023-02-28T06:32:30;-2.10;99.90
15926;DHT22;8062;53.882;10.642;2023-02-28T06:33:49;-2.10;99.90
15926;DHT22;8062;53.882;10.642;2023-02-28T06:35:09;-2.10;99.90
15926;DHT22;8062;53.882;10.642;2023-02-28T06:36:29;-2.10;99.90
15926;DHT22;8062;53.882;10.642;2023-02-28T06:37:49;-2.00;99.90
15926;DHT22;8062;53.882;10.642;2023-02-28T06:39:09;-2.00;99.90
15926;DHT22;8062;53.882;10.642;2023-02-28T06:40:28;-2.10;99.90
15926;DHT22;8062;53.882;10.642;2023-02-28T06:41:51;-2.10;99.90
15926;DHT22;8062;53.882;10.642;2023-02-28T06:43:11;-2.10;99.90
15926;DHT22;8062;53.882;10.642;2023-02-28T06:44:34;-2.10;99.90
15926;DHT22;8062;53.882;10.642;2023-02-28T06:45:59;-2.10;99.90
15926;DHT22;8062;53.882;10.642;2023-02-28T06:47:19;-2.10;99.90
15926;DHT22;8062;53.882;10.642;2023-02-28T06:48:38;-2.10;99.90
15926;DHT22;8062;53.882;10.642;2023-02-28T06:49:58;-2.10;99.90
15926;DHT22;8062;53.882;10.642;2023-02-28T06:51:20;-2.10;99.90
15926;DHT22;8062;53.882;10.642;2023-02-28T06:52:41;-2.10;99.90
15926;DHT22;8062;53.882;10.642;2023-02-28T06:54:01;-2.00;99.90
15926;DHT22;8062;53.882;10.642;2023-02-28T06:55:20;-2.00;99.90
15926;DHT22;8062;53.882;10.642;2023-02-28T06:56:40;-2.00;99.90
15926;DHT22;8062;53.882;10.642;2023-02-28T06:57:59;-2.00;99.90
15926;DHT22;8062;53.882;10.642;2023-02-28T06:59:19;-1.90;99.90
15926;DHT22;8062;53.882;10.642;2023-02-28T07:00:39;-1.90;99.90
15926;DHT22;8062;53.882;10.642;2023-02-28T07:01:58;-1.80;99.90
15926;DHT22;8062;53.882;10.642;2023-02-28T07:03:18;-1.80;99.90
15926;DHT22;8062;53.882;10.642;2023-02-28T07:04:37;-1.80;99.90
15926;DHT22;8062;53.882;10.642;2023-02-28T07:06:02;-1.70;99.90
15926;DHT22;8062;53.882;10.642;2023-02-28T07:07:23;-1.60;99.90
15926;DHT22;8062;53.882;10.642;2023-02-28T07:08:43;-1.60;99.90
15926;DHT22;8062;53.882;10.642;2023-02-28T07:10:03;-1.50;99.90
15926;DHT22;8062;53.882;10.642;2023-02-28T07:11:24;-1.50;99.90
15926;DHT22;8062;53.882;10.642;2023-02-28T07:12:44;-1.40;99.90
15926;DHT22;8062;53.882;10.642;2023-02-28T07:14:04;-1.30;99.90
15926;DHT22;8062;53.882;10.642;2023-02-28T07:15:24;-1.20;99.90
15926;DHT22;8062;53.882;10.642;2023-02-28T07:16:44;-1.20;99.90
15926;DHT22;8062;53.882;10.642;2023-02-28T07:18:04;-1.10;99.90
15926;DHT22;8062;53.882;10.642;2023-02-28T07:19:24;-1.10;99.90
15926;DHT22;8062;53.882;10.642;2023-02-28T07:20:43;-1.00;99.90
15926;DHT22;8062;53.882;10.642;2023-02-28T07:22:03;-0.90;99.90
15926;DHT22;8062;53.882;10.642;2023-02-28T07:23:22;-0.80;99.90
15926;DHT22;8062;53.882;10.642;2023-02-28T07:24:42;-0.80;99.90
15926;DHT22;8062;53.882;10.642;2023-02-28T07:26:02;-0.70;99.90
15926;DHT22;8062;53.882;10.642;2023-02-28T07:27:21;-0.60;99.90
15926;DHT22;8062;53.882;10.642;2023-02-28T07:28:46;-0.60;99.90
15926;DHT22;8062;53.882;10.642;2023-02-28T07:30:06;-0.40;99.90
15926;DHT22;8062;53.882;10.642;2023-02-28T07:31:26;-0.30;99.90
15926;DHT22;8062;53.882;10.642;2023-02-28T07:32:45;-0.10;99.90
15926;DHT22;8062;53.882;10.642;2023-02-28T07:34:05;0.10;99.90
15926;DHT22;8062;53.882;10.642;2023-02-28T07:35:24;0.10;99.90
15926;DHT22;8062;53.882;10.642;2023-02-28T07:36:44;0.20;99.90
15926;DHT22;8062;53.882;10.642;2023-02-28T07:38:03;0.30;99.90
15926;DHT22;8062;53.882;10.642;2023-02-28T07:39:23;0.30;99.90
15926;DHT22;8062;53.882;10.642;2023-02-28T07:40:42;0.40;99.90
15926;DHT22;8062;53.882;10.642;2023-02-28T07:42:05;0.40;99.90
15926;DHT22;8062;53.882;10.642;2023-02-28T07:43:26;0.50;99.90
15926;DHT22;8062;53.882;10.642;2023-02-28T07:44:46;0.50;99.90
15926;DHT22;8062;53.882;10.642;2023-02-28T07:46:09;0.60;99.90
15926;DHT22;8062;53.882;10.642;2023-02-28T07:47:29;0.60;99.90
15926;DHT22;8062;53.882;10.642;2023-02-28T07:48:49;0.70;99.90
15926;DHT22;8062;53.882;10.642;2023-02-28T07:50:11;0.80;99.90
15926;DHT22;8062;53.882;10.642;2023-02-28T07:51:31;0.90;99.90
15926;DHT22;8062;53.882;10.642;2023-02-28T07:52:51;1.10;99.90
15926;DHT22;8062;53.882;10.642;2023-02-28T07:54:10;1.20;99.90
15926;DHT22;8062;53.882;10.642;2023-02-28T07:55:30;1.40;99.90
15926;DHT22;8062;53.882;10.642;2023-02-28T07:56:49;1.50;99.90
15926;DHT22;8062;53.882;10.642;2023-02-28T07:58:09;1.70;99.90
15926;DHT22;8062;53.882;10.642;2023-02-28T07:59:28;2.00;99.90
15926;DHT22;8062;53.882;10.642;2023-02-28T08:00:48;2.10;99.90
15926;DHT22;8062;53.882;10.642;2023-02-28T08:02:13;2.30;99.90
15926;DHT22;8062;53.882;10.642;2023-02-28T08:03:33;2.40;99.90
15926;DHT22;8062;53.882;10.642;2023-02-28T08:04:53;2.60;99.90
15926;DHT22;8062;53.882;10.642;2023-02-28T08:06:19;2.70;99.90
15926;DHT22;8062;53.882;10.642;2023-02-28T08:07:38;2.80;99.90
15926;DHT22;8062;53.882;10.642;2023-02-28T08:08:58;3.00;99.90
15926;DHT22;8062;53.882;10.642;2023-02-28T08:10:17;3.10;99.90
15926;DHT22;8062;53.882;10.642;2023-02-28T08:11:37;3.20;99.90
15926;DHT22;8062;53.882;10.642;2023-02-28T08:12:56;3.40;99.90
15926;DHT22;8062;53.882;10.642;2023-02-28T08:14:16;3.60;99.90
15926;DHT22;8062;53.882;10.642;2023-02-28T08:15:35;3.80;99.90
15926;DHT22;8062;53.882;10.642;2023-02-28T08:16:55;3.90;99.90
15926;DHT22;8062;53.882;10.642;2023-02-28T08:18:15;4.00;99.90
15926;DHT22;8062;53.882;10.642;2023-02-28T08:19:34;4.00;99.90
15926;DHT22;8062;53.882;10.642;2023-02-28T08:20:53;4.10;99.90
15926;DHT22;8062;53.882;10.642;2023-02-28T08:22:13;4.20;99.90
15926;DHT22;8062;53.882;10.642;2023-02-28T08:23:33;4.30;99.90
15926;DHT22;8062;53.882;10.642;2023-02-28T08:24:53;4.40;99.90
15926;DHT22;8062;53.882;10.642;2023-02-28T08:26:12;4.40;99.90
15926;DHT22;8062;53.882;10.642;2023-02-28T08:27:32;4.50;99.90
15926;DHT22;8062;53.882;10.642;2023-02-28T08:28:51;4.70;99.90
15926;DHT22;8062;53.882;10.642;2023-02-28T08:30:13;4.80;99.90
15926;DHT22;8062;53.882;10.642;2023-02-28T08:31:33;4.80;99.90
15926;DHT22;8062;53.882;10.642;2023-02-28T08:32:54;4.90;99.90
15926;DHT22;8062;53.882;10.642;2023-02-28T08:34:16;4.90;99.90
15926;DHT22;8062;53.882;10.642;2023-02-28T08:35:36;5.00;99.90
15926;DHT22;8062;53.882;10.642;2023-02-28T08:36:56;5.00;99.90
15926;DHT22;8062;53.882;10.642;2023-02-28T08:38:16;5.20;99.90
15926;DHT22;8062;53.882;10.642;2023-02-28T08:39:36;5.10;99.90
15926;DHT22;8062;53.882;10.642;2023-02-28T08:40:59;5.40;99.90
15926;DHT22;8062;53.882;10.642;2023-02-28T08:42:20;5.40;99.90
15926;DHT22;8062;53.882;10.642;2023-02-28T08:43:40;5.50;99.90
15926;DHT22;8062;53.882;10.642;2023-02-28T08:45:00;5.60;99.90
15926;DHT22;8062;53.882;10.642;2023-02-28T08:46:19;5.80;99.90
15926;DHT22;8062;53.882;10.642;2023-02-28T08:47:39;5.90;99.90
15926;DHT22;8062;53.882;10.642;2023-02-28T08:48:59;6.00;99.90
15926;DHT22;8062;53.882;10.642;2023-02-28T08:50:19;5.90;99.90
15926;DHT22;8062;53.882;10.642;2023-02-28T08:51:39;6.00;99.90
15926;DHT22;8062;53.882;10.642;2023-02-28T08:52:58;6.10;99.90
15926;DHT22;8062;53.882;10.642;2023-02-28T08:54:18;6.10;99.90
15926;DHT22;8062;53.882;10.642;2023-02-28T08:55:38;6.20;99.90
15926;DHT22;8062;53.882;10.642;2023-02-28T08:56:58;6.20;99.90
15926;DHT22;8062;53.882;10.642;2023-02-28T08:58:18;6.40;99.90
15926;DHT22;8062;53.882;10.642;2023-02-28T08:59:38;6.50;99.90
15926;DHT22;8062;53.882;10.642;2023-02-28T09:00:57;6.60;99.90
15926;DHT22;8062;53.882;10.642;2023-02-28T09:02:17;6.80;99.60
15926;DHT22;8062;53.882;10.642;2023-02-28T09:03:38;6.80;99.60
15926;DHT22;8062;53.882;10.642;2023-02-28T09:04:58;7.00;99.60
15926;DHT22;8062;53.882;10.642;2023-02-28T09:06:19;7.00;98.80
15926;DHT22;8062;53.882;10.642;2023-02-28T09:07:39;7.10;98.90